Time;durP1;ratioP1;P1;durP2;ratioP2;P2;SDS_P1;SDS_P2;PMS_P1;PMS_P2;Temp;Humidity;BMP_temperature;BMP_pressure;BME280_temperature;BME280_humidity;BME280_pressure;Samples;Min_cycle;Max_cycle;Signal;HPM_P1;HPM_P2
2022/01/17 00:01:10;;;;;;;51.13;23.43;;;4.70;99.90;;;;;;5053111;28;20206;-65
2022/01/17 00:03:35;;;;;;;53.73;23.30;;;4.70;99.90;;;;;;5054435;28;20179;-65
2022/01/17 00:06:01;;;;;;;49.80;22.27;;;4.80;99.90;;;;;;5037406;28;20610;-65
2022/01/17 00:08:27;;;;;;;35.03;19.07;;;4.80;99.90;;;;;;5034687;28;20214;-65
2022/01/17 00:10:53;;;;;;;52.07;24.10;;;4.70;99.90;;;;;;5049845;28;20214;-65
2022/01/17 00:13:25;;;;;;;43.93;22.63;;;4.80;99.90;;;;;;5054414;28;20540;-65
2022/01/17 00:15:57;;;;;;;41.70;22.30;;;4.70;99.90;;;;;;5038464;28;20191;-65
2022/01/17 00:18:32;;;;;;;44.87;21.10;;;4.70;99.90;;;;;;5034698;28;20191;-65
2022/01/17 00:20:57;;;;;;;57.47;23.43;;;4.70;99.90;;;;;;5049256;28;20178;-66
2022/01/17 00:23:23;;;;;;;35.67;22.57;;;4.60;99.90;;;;;;5042145;28;20237;-66
2022/01/17 00:25:49;;;;;;;37.33;20.33;;;4.70;99.90;;;;;;5034605;28;20191;-66
2022/01/17 00:28:14;;;;;;;32.97;18.67;;;4.70;99.90;;;;;;5044085;28;20683;-65
2022/01/17 00:30:40;;;;;;;52.90;23.60;;;4.70;99.90;;;;;;5054365;28;20232;-66
2022/01/17 00:33:06;;;;;;;42.53;22.40;;;4.70;99.90;;;;;;5045416;28;20334;-66
2022/01/17 00:35:31;;;;;;;41.87;20.30;;;4.70;99.90;;;;;;5034256;28;20178;-66
2022/01/17 00:37:57;;;;;;;46.03;22.47;;;4.70;99.90;;;;;;5040468;28;20186;-66
2022/01/17 00:40:23;;;;;;;43.00;22.77;;;4.70;99.90;;;;;;5054057;28;20722;-66
2022/01/17 00:42:49;;;;;;;38.17;21.13;;;4.70;99.90;;;;;;5048937;28;20314;-65
2022/01/17 00:45:15;;;;;;;35.97;21.67;;;4.70;99.90;;;;;;5034011;28;20266;-65
2022/01/17 00:47:42;;;;;;;43.73;21.30;;;4.70;99.90;;;;;;5036660;28;20739;-66
2022/01/17 00:50:09;;;;;;;53.20;23.70;;;4.70;99.90;;;;;;5053704;28;20179;-65
2022/01/17 00:52:34;;;;;;;50.50;23.50;;;4.70;99.90;;;;;;5033676;28;20191;-65
2022/01/17 00:55:00;;;;;;;39.50;19.97;;;4.70;99.90;;;;;;5033920;28;20267;-65
2022/01/17 00:57:26;;;;;;;46.70;25.60;;;4.70;99.90;;;;;;5034332;28;20546;-66
2022/01/17 00:59:51;;;;;;;54.17;25.77;;;4.70;99.90;;;;;;5033800;28;20175;-65
2022/01/17 01:02:17;;;;;;;45.40;25.03;;;4.80;99.90;;;;;;5033370;28;20555;-65
2022/01/17 01:04:43;;;;;;;53.43;25.47;;;4.80;99.90;;;;;;5033619;28;20179;-65
2022/01/17 01:07:08;;;;;;;44.80;24.03;;;4.70;99.90;;;;;;5045759;28;20298;-65
2022/01/17 01:09:43;;;;;;;44.87;23.40;;;4.80;99.90;;;;;;5053753;28;20228;-66
2022/01/17 01:12:09;;;;;;;47.63;23.83;;;4.70;99.90;;;;;;5051815;28;20198;-65
2022/01/17 01:14:34;;;;;;;42.57;22.20;;;4.80;99.90;;;;;;5053581;28;20171;-65
2022/01/17 01:17:07;;;;;;;47.30;23.10;;;4.80;99.90;;;;;;5038230;28;20191;-65
2022/01/17 01:19:40;;;;;;;42.67;22.70;;;4.80;99.90;;;;;;5044149;28;20707;-66
2022/01/17 01:30:01;;;;;;;42.73;22.40;;;4.80;99.90;;;;;;5045939;28;20182;-66
2022/01/17 01:32:36;;;;;;;56.87;26.50;;;4.80;99.90;;;;;;5052858;28;20722;-65
2022/01/17 01:35:03;;;;;;;48.20;26.13;;;4.80;99.90;;;;;;5039217;28;20448;-66
2022/01/17 01:37:29;;;;;;;42.53;23.30;;;4.80;99.90;;;;;;5033197;28;20532;-66
2022/01/17 01:39:55;;;;;;;50.40;23.80;;;4.80;99.90;;;;;;5043472;28;20183;-66
2022/01/17 01:42:23;;;;;;;52.57;25.63;;;4.80;99.90;;;;;;5052763;28;20566;-66
2022/01/17 01:44:51;;;;;;;52.07;23.43;;;4.80;99.90;;;;;;5045243;28;20179;-66
2022/01/17 01:47:20;;;;;;;57.83;24.87;;;4.80;99.90;;;;;;5048264;28;20675;-65
2022/01/17 01:49:46;;;;;;;51.03;25.40;;;4.80;99.90;;;;;;5052718;28;20702;-65
2022/01/17 01:52:11;;;;;;;55.47;25.53;;;4.80;99.90;;;;;;5052409;28;20195;-65
2022/01/17 01:54:37;;;;;;;57.30;24.40;;;4.80;99.90;;;;;;5052342;28;20557;-66
2022/01/17 01:57:03;;;;;;;56.37;26.73;;;4.80;99.90;;;;;;5052651;28;20182;-66
2022/01/17 01:59:29;;;;;;;49.83;24.07;;;4.80;99.90;;;;;;5046483;28;20226;-66
2022/01/17 02:01:54;;;;;;;46.83;25.17;;;4.90;99.90;;;;;;5031125;28;20226;-66
2022/01/17 02:04:20;;;;;;;56.30;25.43;;;4.90;99.90;;;;;;5036146;28;20236;-66
2022/01/17 02:06:46;;;;;;;38.23;18.93;;;4.90;99.90;;;;;;5052465;28;20236;-65
2022/01/17 02:09:11;;;;;;;59.80;26.13;;;4.80;99.90;;;;;;5049907;28;20217;-66
2022/01/17 02:11:37;;;;;;;48.37;23.83;;;4.90;99.90;;;;;;5032416;28;20197;-66
2022/01/17 02:14:04;;;;;;;52.67;25.80;;;4.90;99.90;;;;;;5046934;28;20539;-65
2022/01/17 02:16:30;;;;;;;55.40;26.33;;;5.00;99.90;;;;;;5052089;28;20229;-65
2022/01/17 02:18:55;;;;;;;64.27;25.30;;;4.90;99.90;;;;;;5038808;28;20567;-65
2022/01/17 02:24:22;;;;;;;61.30;26.77;;;5.00;99.90;;;;;;4987249;28;20552;-65
2022/01/17 02:26:50;;;;;;;65.57;28.10;;;5.00;99.90;;;;;;5039375;28;20197;-65
2022/01/17 02:29:16;;;;;;;52.47;25.10;;;5.00;99.90;;;;;;5051435;28;20189;-66
2022/01/17 02:31:43;;;;;;;45.73;23.57;;;5.00;99.90;;;;;;5051759;28;20270;-65
2022/01/17 02:34:09;;;;;;;58.27;26.70;;;5.00;99.90;;;;;;5038360;28;20187;-65
2022/01/17 02:36:35;;;;;;;59.83;25.27;;;5.00;99.90;;;;;;5032305;28;20251;-65
2022/01/17 02:39:03;;;;;;;56.70;25.27;;;5.10;99.90;;;;;;5043050;28;20668;-67
2022/01/17 02:41:31;;;;;;;64.50;27.00;;;5.10;99.90;;;;;;5033396;28;20668;-67
2022/01/17 02:43:57;;;;;;;57.70;26.07;;;5.10;99.90;;;;;;5041418;28;20183;-66
2022/01/17 02:46:25;;;;;;;70.37;24.70;;;5.20;99.90;;;;;;5051995;28;20659;-66
2022/01/17 02:48:52;;;;;;;51.90;25.70;;;5.20;99.90;;;;;;5050044;28;20241;-67
2022/01/17 02:51:17;;;;;;;60.57;25.57;;;5.20;99.90;;;;;;5051921;28;20274;-66
2022/01/17 02:53:43;;;;;;;60.03;26.47;;;5.20;99.90;;;;;;5043186;28;20266;-67
2022/01/17 02:56:10;;;;;;;76.37;26.80;;;5.10;99.90;;;;;;5030663;28;20194;-67
2022/01/17 02:58:37;;;;;;;48.37;23.90;;;5.10;99.90;;;;;;5036783;28;20179;-67
2022/01/17 03:01:07;;;;;;;58.67;25.40;;;5.10;99.90;;;;;;5051545;28;20222;-66
2022/01/17 03:03:33;;;;;;;50.70;25.10;;;5.20;99.90;;;;;;5047334;28;20625;-66
2022/01/17 03:05:59;;;;;;;60.07;27.53;;;5.20;99.90;;;;;;5031536;28;20182;-66
2022/01/17 03:08:28;;;;;;;61.07;28.13;;;5.20;99.90;;;;;;5039813;28;20245;-67
2022/01/17 03:10:55;;;;;;;54.83;27.33;;;5.10;99.90;;;;;;5051752;28;20182;-66
2022/01/17 03:13:28;;;;;;;56.53;26.83;;;5.20;99.90;;;;;;5050767;28;20680;-67
2022/01/17 03:15:56;;;;;;;49.73;24.63;;;5.20;99.90;;;;;;5051723;28;20178;-67
2022/01/17 03:18:24;;;;;;;76.10;27.27;;;5.10;99.90;;;;;;5044368;28;20633;-66
2022/01/17 03:20:50;;;;;;;75.97;29.13;;;5.20;99.90;;;;;;5030401;28;20179;-66
2022/01/17 03:23:16;;;;;;;65.77;26.83;;;5.20;99.90;;;;;;5036312;28;20187;-66
2022/01/17 03:25:41;;;;;;;60.27;27.30;;;5.20;99.90;;;;;;5051396;28;20178;-67
2022/01/17 03:28:07;;;;;;;60.97;26.10;;;5.20;99.90;;;;;;5047748;28;20294;-66
2022/01/17 03:30:33;;;;;;;65.87;27.33;;;5.20;99.90;;;;;;5035347;28;20645;-67
2022/01/17 03:33:07;;;;;;;59.20;29.40;;;5.20;99.90;;;;;;5034465;28;20654;-66
2022/01/17 03:35:36;;;;;;;62.17;26.80;;;5.20;99.90;;;;;;5055367;28;20623;-64
2022/01/17 03:38:01;;;;;;;64.83;26.57;;;5.20;99.90;;;;;;5053720;28;20233;-66
2022/01/17 03:40:27;;;;;;;62.93;28.37;;;5.10;99.90;;;;;;5035425;28;20202;-65
2022/01/17 03:42:53;;;;;;;65.43;27.53;;;5.20;99.90;;;;;;5041199;28;20281;-65
2022/01/17 03:45:18;;;;;;;59.77;26.67;;;5.20;99.90;;;;;;5055323;28;20175;-64
2022/01/17 03:47:49;;;;;;;60.83;27.07;;;5.20;99.90;;;;;;5050354;28;20689;-65
2022/01/17 03:50:20;;;;;;;55.00;25.33;;;5.20;99.90;;;;;;5035063;28;20163;-65
2022/01/17 03:52:46;;;;;;;54.90;26.07;;;5.20;99.90;;;;;;5038680;28;20461;-65
2022/01/17 03:55:14;;;;;;;47.87;24.53;;;5.20;99.90;;;;;;5053776;28;20399;-64
2022/01/17 03:57:43;;;;;;;62.60;26.60;;;5.20;99.90;;;;;;5052271;28;20206;-64
2022/01/17 04:00:13;;;;;;;49.33;25.67;;;5.20;99.90;;;;;;5034802;28;20172;-65
2022/01/17 04:02:39;;;;;;;60.77;26.30;;;5.20;99.90;;;;;;5047314;28;20642;-66
2022/01/17 04:05:06;;;;;;;57.50;26.10;;;5.20;99.90;;;;;;5054765;28;20210;-65
2022/01/17 04:07:32;;;;;;;55.50;25.50;;;5.20;99.90;;;;;;5041903;28;20199;-65
2022/01/17 04:09:58;;;;;;;60.67;27.20;;;5.10;99.90;;;;;;5034608;28;20266;-65
2022/01/17 04:12:23;;;;;;;51.93;25.80;;;5.00;99.90;;;;;;5045030;28;20294;-66
2022/01/17 04:14:54;;;;;;;63.10;27.00;;;4.90;99.90;;;;;;5053613;28;20197;-65
2022/01/17 04:17:19;;;;;;;51.03;23.27;;;4.90;99.90;;;;;;5044996;28;20179;-65
2022/01/17 04:19:49;;;;;;;60.50;25.33;;;4.90;99.90;;;;;;5033161;28;20245;-65
2022/01/17 04:22:14;;;;;;;57.47;26.63;;;4.90;99.90;;;;;;5042060;28;20259;-66
2022/01/17 04:24:40;;;;;;;63.63;26.90;;;5.00;99.90;;;;;;5053340;28;20257;-66
2022/01/17 04:27:06;;;;;;;57.00;26.77;;;5.00;99.90;;;;;;5046585;28;20336;-65
2022/01/17 04:29:31;;;;;;;66.53;25.27;;;5.00;99.90;;;;;;5037922;28;20198;-66
2022/01/17 04:31:57;;;;;;;59.20;25.83;;;5.00;99.90;;;;;;5054075;28;20191;-67
2022/01/17 04:34:23;;;;;;;55.87;27.80;;;5.00;99.90;;;;;;5051090;28;20174;-65
2022/01/17 04:36:48;;;;;;;52.43;23.73;;;5.00;99.90;;;;;;5034297;28;20186;-64
2022/01/17 04:39:16;;;;;;;56.00;25.70;;;4.90;99.90;;;;;;5034194;28;20168;-65
2022/01/17 04:41:43;;;;;;;50.73;24.93;;;4.90;99.90;;;;;;5033805;28;20716;-65
2022/01/17 04:46:53;;;;;;;58.30;24.63;;;4.90;99.90;;;;;;5034352;28;20713;-65
2022/01/17 04:49:18;;;;;;;60.33;26.73;;;5.00;99.90;;;;;;5046192;28;20187;-65
2022/01/17 04:51:45;;;;;;;51.93;25.70;;;5.00;99.90;;;;;;5053820;28;20187;-65
2022/01/17 04:54:39;;;;;;;52.10;24.60;;;5.00;99.90;;;;;;5042818;28;20182;-67
2022/01/17 04:57:05;;;;;;;50.13;27.23;;;5.10;99.90;;;;;;5033896;28;20314;-65
2022/01/17 04:59:30;;;;;;;60.90;26.63;;;5.10;99.90;;;;;;5052395;28;20696;-67
2022/01/17 05:01:56;;;;;;;49.13;24.03;;;5.10;99.90;;;;;;5051885;28;20209;-66
2022/01/17 05:04:22;;;;;;;58.17;24.87;;;5.10;99.90;;;;;;5036779;28;20641;-65
2022/01/17 05:06:47;;;;;;;57.00;25.87;;;5.20;99.90;;;;;;5035305;28;20226;-67
2022/01/17 05:09:13;;;;;;;49.63;23.43;;;5.20;99.90;;;;;;5052384;28;20266;-66
2022/01/17 05:11:40;;;;;;;45.67;20.20;;;5.20;99.90;;;;;;5053341;28;20187;-66
2022/01/17 05:14:05;;;;;;;57.07;24.07;;;5.20;99.90;;;;;;5033399;28;20543;-67
2022/01/17 05:16:37;;;;;;;50.80;25.33;;;5.30;99.90;;;;;;5033837;28;20251;-66
2022/01/17 05:21:47;;;;;;;51.23;23.17;;;5.20;99.90;;;;;;5053251;28;20282;-66
2022/01/17 05:24:12;;;;;;;51.80;21.83;;;5.30;99.90;;;;;;5033384;28;20261;-67
2022/01/17 05:26:38;;;;;;;54.33;24.40;;;5.20;99.90;;;;;;5043729;28;20663;-67
2022/01/17 05:29:04;;;;;;;49.47;24.53;;;5.30;99.90;;;;;;5053278;28;20273;-67
2022/01/17 05:31:30;;;;;;;55.47;25.57;;;5.20;99.90;;;;;;5044733;28;20203;-67
2022/01/17 05:33:55;;;;;;;45.00;22.63;;;5.20;99.90;;;;;;5033964;28;20214;-66
2022/01/17 05:36:21;;;;;;;65.13;25.37;;;5.20;99.90;;;;;;5033312;28;20178;-66
2022/01/17 05:38:46;;;;;;;51.03;24.20;;;5.20;99.90;;;;;;5038757;28;20179;-67
2022/01/17 05:41:12;;;;;;;53.60;23.53;;;5.10;99.90;;;;;;5053091;28;20252;-67
2022/01/17 05:43:38;;;;;;;51.40;23.83;;;5.10;99.90;;;;;;5035871;28;20653;-66
2022/01/17 05:46:03;;;;;;;53.60;23.77;;;5.10;99.90;;;;;;5032975;28;20184;-66
2022/01/17 05:48:29;;;;;;;55.30;23.50;;;5.00;99.90;;;;;;5048239;28;20202;-65
2022/01/17 05:50:55;;;;;;;39.50;22.37;;;5.00;99.90;;;;;;5052785;28;20163;-67
2022/01/17 05:53:20;;;;;;;47.20;23.50;;;5.00;99.90;;;;;;5038351;28;20180;-66
2022/01/17 05:55:46;;;;;;;53.13;23.23;;;5.10;99.90;;;;;;5032922;28;20629;-66
2022/01/17 05:58:12;;;;;;;57.83;23.03;;;5.10;99.90;;;;;;5042748;28;20182;-66
2022/01/17 06:00:38;;;;;;;40.27;22.10;;;5.00;99.90;;;;;;5052610;28;20181;-65
2022/01/17 06:03:04;;;;;;;48.47;23.03;;;5.10;99.90;;;;;;5041982;28;20211;-65
2022/01/17 06:05:30;;;;;;;41.40;20.93;;;5.10;99.90;;;;;;5032772;28;20187;-65
2022/01/17 06:07:55;;;;;;;29.60;19.10;;;5.10;99.90;;;;;;5040533;28;20216;-66
2022/01/17 06:10:21;;;;;;;41.30;20.83;;;5.10;99.90;;;;;;5052509;28;20249;-66
2022/01/17 06:12:47;;;;;;;41.30;21.93;;;5.20;99.90;;;;;;5045600;28;20695;-66
2022/01/17 06:15:12;;;;;;;43.53;21.77;;;5.20;99.90;;;;;;5032820;28;20537;-67
2022/01/17 06:17:38;;;;;;;47.47;23.53;;;5.30;99.90;;;;;;5037222;28;20217;-65
2022/01/17 06:20:05;;;;;;;43.83;22.07;;;5.30;99.90;;;;;;5048968;28;20198;-67
2022/01/17 06:22:31;;;;;;;54.20;23.83;;;5.30;99.90;;;;;;5030637;28;20214;-67
2022/01/17 06:24:56;;;;;;;40.60;22.37;;;5.40;99.90;;;;;;5032725;28;20185;-65
2022/01/17 06:27:22;;;;;;;40.63;20.80;;;5.40;99.90;;;;;;5052247;28;20246;-66
2022/01/17 06:29:48;;;;;;;35.70;20.87;;;5.40;99.90;;;;;;5052299;28;20595;-66
2022/01/17 06:32:14;;;;;;;43.47;21.63;;;5.40;99.90;;;;;;5031811;28;20231;-67
2022/01/17 06:34:39;;;;;;;46.93;22.00;;;5.40;99.90;;;;;;5032157;28;20641;-66
2022/01/17 06:37:05;;;;;;;43.43;22.40;;;5.50;99.90;;;;;;5048418;28;20171;-66
2022/01/17 06:39:30;;;;;;;36.40;22.00;;;5.50;99.90;;;;;;5051963;28;20175;-66
2022/01/17 06:41:56;;;;;;;40.43;22.27;;;5.40;99.90;;;;;;5034950;28;20286;-65
2022/01/17 06:44:21;;;;;;;40.03;19.77;;;5.50;99.90;;;;;;5032000;28;20547;-66
2022/01/17 06:46:47;;;;;;;40.97;22.23;;;5.50;99.90;;;;;;5044790;28;20633;-65
2022/01/17 06:49:13;;;;;;;49.17;22.83;;;5.50;99.90;;;;;;5042583;28;20210;-66
2022/01/17 06:51:39;;;;;;;40.23;22.03;;;5.50;99.90;;;;;;5046426;28;20370;-66
2022/01/17 06:54:04;;;;;;;29.63;18.50;;;5.50;99.90;;;;;;5048527;28;20314;-66
2022/01/17 06:56:30;;;;;;;41.50;23.03;;;5.50;99.90;;;;;;5031842;28;20187;-65
2022/01/17 06:58:56;;;;;;;39.67;22.20;;;5.50;99.90;;;;;;5032321;28;20185;-66
2022/01/17 07:01:22;;;;;;;47.00;21.87;;;5.50;99.90;;;;;;5031572;28;20264;-66
2022/01/17 07:03:50;;;;;;;43.17;22.20;;;5.50;99.90;;;;;;5036253;28;20233;-66
2022/01/17 07:06:16;;;;;;;40.40;20.97;;;5.60;99.90;;;;;;5049745;28;20187;-65
2022/01/17 07:08:44;;;;;;;39.30;20.37;;;5.60;99.90;;;;;;5048681;28;20213;-65
2022/01/17 07:11:11;;;;;;;37.17;19.67;;;5.60;99.90;;;;;;5051121;28;20289;-66
2022/01/17 07:13:37;;;;;;;37.30;20.97;;;5.60;99.90;;;;;;5044723;28;20266;-65
2022/01/17 07:16:03;;;;;;;46.17;23.60;;;5.60;99.90;;;;;;5031081;28;20207;-66
2022/01/17 07:18:29;;;;;;;38.07;21.90;;;5.60;99.90;;;;;;5030131;28;20636;-66
2022/01/17 07:20:54;;;;;;;39.13;22.73;;;5.60;99.90;;;;;;5031116;28;20175;-66
2022/01/17 07:23:20;;;;;;;29.73;19.27;;;5.60;99.90;;;;;;5031355;28;20270;-65
2022/01/17 07:25:45;;;;;;;31.73;20.80;;;5.60;99.90;;;;;;5029980;28;20183;-66
2022/01/17 07:28:13;;;;;;;39.93;21.43;;;5.60;99.90;;;;;;5036126;28;20279;-65
2022/01/17 07:30:39;;;;;;;38.80;21.90;;;5.60;99.90;;;;;;5051237;28;20173;-66
2022/01/17 07:33:05;;;;;;;36.97;21.47;;;5.60;99.90;;;;;;5045506;28;20202;-66
2022/01/17 07:35:31;;;;;;;27.77;17.93;;;5.60;99.90;;;;;;5030462;28;20254;-67
2022/01/17 07:37:57;;;;;;;35.50;20.33;;;5.60;99.90;;;;;;5033702;28;20179;-66
2022/01/17 07:40:23;;;;;;;38.67;22.03;;;5.60;99.90;;;;;;5049617;28;20179;-67
2022/01/17 07:42:49;;;;;;;40.90;21.37;;;5.60;99.90;;;;;;5035405;28;20682;-66
2022/01/17 07:45:17;;;;;;;39.60;22.03;;;5.60;99.90;;;;;;5029664;28;20180;-66
2022/01/17 07:50:21;;;;;;;39.33;20.43;;;5.50;99.90;;;;;;5051138;28;20178;-65
2022/01/17 07:52:47;;;;;;;36.23;20.73;;;5.40;99.90;;;;;;5035343;28;20203;-65
2022/01/17 07:55:14;;;;;;;32.13;18.63;;;5.40;99.90;;;;;;5029696;28;20183;-65
2022/01/17 07:57:41;;;;;;;40.30;20.97;;;5.40;99.90;;;;;;5033190;28;20215;-65
2022/01/17 08:00:09;;;;;;;23.30;16.67;;;5.40;99.90;;;;;;5029729;28;20266;-66
2022/01/17 08:02:35;;;;;;;34.70;21.03;;;5.40;99.90;;;;;;5041242;28;20221;-65
2022/01/17 08:05:02;;;;;;;46.80;21.43;;;5.40;99.90;;;;;;5049678;28;20671;-67
2022/01/17 08:07:28;;;;;;;36.57;20.20;;;5.50;99.90;;;;;;5041562;28;20207;-66
2022/01/17 08:09:54;;;;;;;35.27;18.97;;;5.50;99.90;;;;;;5036680;28;20171;-65
2022/01/17 08:12:19;;;;;;;38.57;21.10;;;5.60;99.90;;;;;;5050377;28;20256;-66
2022/01/17 08:14:45;;;;;;;27.70;19.10;;;5.60;99.90;;;;;;5044984;28;20175;-65
2022/01/17 08:17:11;;;;;;;38.93;20.60;;;5.70;99.90;;;;;;5034426;28;20656;-65
2022/01/17 08:19:38;;;;;;;30.87;18.47;;;5.70;99.90;;;;;;5037218;28;20178;-66
2022/01/17 08:22:06;;;;;;;31.43;18.10;;;5.80;99.90;;;;;;5039588;28;20207;-65
2022/01/17 08:24:33;;;;;;;29.30;18.47;;;5.80;99.90;;;;;;5034339;28;20276;-65
2022/01/17 08:26:59;;;;;;;37.43;23.33;;;5.90;99.90;;;;;;5054234;28;20217;-67
2022/01/17 08:29:26;;;;;;;25.83;16.17;;;5.90;99.90;;;;;;5054655;28;20182;-68
2022/01/17 08:31:53;;;;;;;31.93;17.53;;;5.80;99.90;;;;;;5035522;28;20183;-66
2022/01/17 08:34:18;;;;;;;28.83;19.00;;;5.90;99.90;;;;;;5033121;28;20179;-66
2022/01/17 08:36:45;;;;;;;32.17;18.90;;;5.90;99.90;;;;;;5033525;28;20207;-66
2022/01/17 08:39:12;;;;;;;31.77;20.60;;;6.00;99.90;;;;;;5034457;28;20579;-66
2022/01/17 08:41:42;;;;;;;23.53;15.83;;;6.00;99.90;;;;;;5051682;28;20226;-66
2022/01/17 08:44:12;;;;;;;35.03;17.93;;;5.90;99.90;;;;;;5052643;28;20185;-67
2022/01/17 08:46:38;;;;;;;29.47;18.80;;;6.00;99.90;;;;;;5037806;28;20306;-67
2022/01/17 08:49:04;;;;;;;33.63;19.33;;;6.00;99.90;;;;;;5034889;28;20676;-66
2022/01/17 08:51:29;;;;;;;30.00;19.70;;;6.00;99.90;;;;;;5049332;28;20689;-66
2022/01/17 08:53:55;;;;;;;32.07;18.60;;;6.00;99.90;;;;;;5053851;28;20179;-67
2022/01/17 08:56:21;;;;;;;34.77;20.97;;;6.00;99.90;;;;;;5040928;28;20183;-65
2022/01/17 08:58:46;;;;;;;38.50;20.63;;;6.00;99.90;;;;;;5034175;28;20183;-67
2022/01/17 09:01:13;;;;;;;34.37;22.57;;;6.10;99.90;;;;;;5045613;28;20317;-67
2022/01/17 09:03:40;;;;;;;32.90;18.73;;;6.00;99.90;;;;;;5055829;28;20167;-65
2022/01/17 09:06:06;;;;;;;22.77;14.10;;;6.00;99.90;;;;;;5045292;28;20188;-67
2022/01/17 09:08:32;;;;;;;35.40;19.27;;;6.00;99.90;;;;;;5040107;28;20206;-67
2022/01/17 09:10:58;;;;;;;39.60;23.03;;;6.00;99.90;;;;;;5052888;28;20257;-66
2022/01/17 09:13:24;;;;;;;41.00;22.47;;;6.00;99.90;;;;;;5048070;28;20175;-67
2022/01/17 09:15:51;;;;;;;32.47;16.53;;;6.00;99.90;;;;;;5033357;28;20175;-66
2022/01/17 09:18:19;;;;;;;38.93;21.20;;;6.00;99.90;;;;;;5037338;28;20198;-65
2022/01/17 09:20:45;;;;;;;34.37;22.67;;;6.00;99.90;;;;;;5053139;28;20312;-66
2022/01/17 09:23:11;;;;;;;22.70;16.40;;;6.10;99.90;;;;;;5051579;28;20257;-67
2022/01/17 09:25:36;;;;;;;28.80;19.03;;;6.20;99.90;;;;;;5054863;28;20183;-67
2022/01/17 09:28:03;;;;;;;18.67;15.90;;;6.20;99.90;;;;;;5053668;28;20205;-66
2022/01/17 09:30:28;;;;;;;33.80;20.10;;;6.30;99.90;;;;;;5034102;28;20176;-67
2022/01/17 09:32:54;;;;;;;30.43;19.43;;;6.30;99.90;;;;;;5035208;28;20210;-67
2022/01/17 09:35:20;;;;;;;30.00;19.53;;;6.30;99.90;;;;;;5051625;28;20281;-66
2022/01/17 09:37:46;;;;;;;35.70;22.70;;;6.40;99.90;;;;;;5051979;28;20551;-67
2022/01/17 09:40:12;;;;;;;30.63;21.03;;;6.60;99.90;;;;;;5036453;28;20191;-67
2022/01/17 09:42:39;;;;;;;38.63;21.83;;;6.80;99.90;;;;;;5046736;28;20194;-66
2022/01/17 09:45:07;;;;;;;34.23;22.03;;;6.80;99.90;;;;;;5051736;28;20193;-66
2022/01/17 09:47:34;;;;;;;34.60;23.13;;;6.90;99.90;;;;;;5040941;28;20567;-66
2022/01/17 09:50:06;;;;;;;34.03;21.77;;;6.90;99.90;;;;;;5033109;28;20179;-65
2022/01/17 09:52:34;;;;;;;35.60;22.27;;;6.90;99.90;;;;;;5039936;28;20561;-67
2022/01/17 09:55:20;;;;;;;26.50;19.13;;;6.80;99.90;;;;;;5033948;28;20180;-66
2022/01/17 09:57:52;;;;;;;32.43;21.33;;;6.80;99.90;;;;;;5053319;28;20472;-66
2022/01/17 10:00:26;;;;;;;32.63;20.17;;;6.80;99.90;;;;;;5050969;28;20175;-65
2022/01/17 10:02:59;;;;;;;34.13;20.90;;;6.70;99.90;;;;;;5103025;22;20248;-63
2022/01/17 10:05:26;;;;;;;30.23;19.37;;;6.70;99.90;;;;;;5072658;28;20170;-63
2022/01/17 10:08:04;;;;;;;21.37;17.97;;;6.80;99.90;;;;;;5072449;28;20555;-63
2022/01/17 10:10:35;;;;;;;28.03;20.63;;;6.80;99.90;;;;;;5072403;28;20254;-63
2022/01/17 10:13:23;;;;;;;34.07;25.80;;;6.80;99.90;;;;;;5071898;28;20198;-63
2022/01/17 10:16:23;;;;;;;31.30;23.47;;;6.80;99.90;;;;;;5066853;28;20190;-63
2022/01/17 10:19:01;;;;;;;28.47;18.63;;;6.70;99.90;;;;;;5050722;28;20210;-63
2022/01/17 10:21:36;;;;;;;31.00;23.27;;;6.70;99.90;;;;;;5061000;28;20193;-64
2022/01/17 10:29:58;;;;;;;32.53;25.00;;;6.80;99.90;;;;;;5059600;28;20198;-64
2022/01/17 10:35:13;;;;;;;35.80;24.73;;;6.90;99.90;;;;;;5056486;28;20225;-64
2022/01/17 10:37:40;;;;;;;38.40;23.80;;;7.10;99.90;;;;;;5050614;28;20175;-64
2022/01/17 10:40:07;;;;;;;27.70;20.37;;;7.40;99.90;;;;;;5064293;28;20201;-64
2022/01/17 10:42:42;;;;;;;31.60;20.93;;;7.50;99.90;;;;;;5071548;28;20196;-65
2022/01/17 10:45:10;;;;;;;26.80;18.33;;;7.50;99.90;;;;;;5057551;28;20182;-65
2022/01/17 10:47:39;;;;;;;23.57;18.33;;;7.40;99.90;;;;;;5051806;28;20249;-64
2022/01/17 10:50:14;;;;;;;23.97;17.63;;;7.50;99.90;;;;;;5064513;28;20170;-64
2022/01/17 10:52:43;;;;;;;32.33;20.00;;;7.50;99.90;;;;;;5067861;28;20554;-64
2022/01/17 10:55:13;;;;;;;18.90;13.87;;;7.50;99.90;;;;;;5051574;28;20555;-65
2022/01/17 10:57:42;;;;;;;25.87;19.27;;;7.50;99.90;;;;;;5061573;28;20178;-65
2022/01/17 11:00:13;;;;;;;25.87;19.60;;;7.40;99.90;;;;;;5071320;28;20198;-64
2022/01/17 11:02:42;;;;;;;29.13;21.83;;;7.30;99.90;;;;;;5068575;28;20726;-66
2022/01/17 11:05:10;;;;;;;27.63;19.63;;;7.30;99.90;;;;;;5070740;28;20198;-64
2022/01/17 11:07:43;;;;;;;25.30;17.93;;;7.20;99.90;;;;;;5060251;28;20753;-63
2022/01/17 11:10:22;;;;;;;26.70;20.77;;;7.10;99.90;;;;;;5050274;28;20266;-64
2022/01/17 11:12:49;;;;;;;24.80;17.70;;;7.00;99.90;;;;;;5058886;28;20619;-63
2022/01/17 11:15:17;;;;;;;20.73;18.53;;;6.90;99.90;;;;;;5069015;28;20588;-64
2022/01/17 11:17:49;;;;;;;15.17;13.90;;;6.80;99.90;;;;;;5061721;28;20171;-65
2022/01/17 11:20:15;;;;;;;23.00;16.90;;;6.70;99.90;;;;;;5068492;28;20201;-65
2022/01/17 11:22:43;;;;;;;23.67;18.50;;;6.70;99.90;;;;;;5062084;28;20281;-63
2022/01/17 11:25:19;;;;;;;20.90;18.67;;;6.70;99.90;;;;;;5055988;28;20178;-63
2022/01/17 11:27:45;;;;;;;18.60;15.53;;;6.70;99.90;;;;;;5070650;28;20355;-64
2022/01/17 11:30:12;;;;;;;29.70;21.63;;;6.60;99.90;;;;;;5062698;28;20179;-64
2022/01/17 11:32:39;;;;;;;30.17;19.87;;;6.70;99.90;;;;;;5050701;28;20194;-64
2022/01/17 11:35:06;;;;;;;22.40;18.00;;;6.80;99.90;;;;;;5055844;28;20304;-64
2022/01/17 11:37:37;;;;;;;33.13;21.77;;;6.80;99.90;;;;;;5069700;28;20178;-64
2022/01/17 11:40:04;;;;;;;23.70;19.33;;;6.80;99.90;;;;;;5069037;28;20197;-64
2022/01/17 11:42:45;;;;;;;22.80;18.63;;;6.80;99.90;;;;;;5070468;28;20600;-65
2022/01/17 11:45:23;;;;;;;28.67;20.80;;;6.80;99.90;;;;;;5062446;28;20186;-64
2022/01/17 11:47:57;;;;;;;25.60;19.87;;;6.90;99.90;;;;;;5050674;28;20201;-67
2022/01/17 11:50:33;;;;;;;15.43;13.87;;;7.00;99.90;;;;;;5059675;28;20177;-64
2022/01/17 11:53:21;;;;;;;21.30;16.87;;;7.00;99.90;;;;;;5069754;28;20222;-65
2022/01/17 11:55:49;;;;;;;16.73;14.93;;;6.90;99.90;;;;;;5053766;28;20216;-64
2022/01/17 11:58:30;;;;;;;22.87;16.27;;;6.80;99.90;;;;;;5059928;28;20265;-64
2022/01/17 12:01:01;;;;;;;22.53;18.93;;;6.70;99.90;;;;;;5072756;28;20261;-64
2022/01/17 12:03:45;;;;;;;19.90;16.60;;;6.70;99.90;;;;;;5029756;28;1077679;-64
2022/01/17 12:06:32;;;;;;;26.17;19.77;;;6.70;99.90;;;;;;5054954;28;20420;-65
2022/01/17 12:09:30;;;;;;;16.77;14.23;;;6.70;99.90;;;;;;5065981;28;20293;-62
2022/01/17 12:12:07;;;;;;;30.73;19.83;;;6.60;99.90;;;;;;5063108;28;20209;-64
2022/01/17 12:14:40;;;;;;;21.77;16.57;;;6.70;99.90;;;;;;5058734;28;20613;-64
2022/01/17 12:17:23;;;;;;;32.13;19.13;;;6.70;99.90;;;;;;5054852;28;20258;-64
2022/01/17 12:20:07;;;;;;;24.40;17.10;;;6.80;99.90;;;;;;5071979;28;20644;-65
2022/01/17 12:22:39;;;;;;;18.80;13.67;;;6.80;99.90;;;;;;5058904;28;20225;-64
2022/01/17 12:25:24;;;;;;;24.67;16.70;;;6.90;99.90;;;;;;5055519;28;20175;-64
2022/01/17 12:28:12;;;;;;;18.80;16.03;;;6.90;99.90;;;;;;5072769;28;20194;-65
2022/01/17 12:30:57;;;;;;;18.10;14.73;;;6.90;99.90;;;;;;5075274;28;20224;-64
2022/01/17 12:33:40;;;;;;;22.87;18.23;;;6.90;99.90;;;;;;5054776;28;20199;-65
2022/01/17 12:36:28;;;;;;;14.60;13.17;;;6.90;99.90;;;;;;5057041;28;20191;-64
2022/01/17 12:39:14;;;;;;;18.43;15.17;;;6.90;99.90;;;;;;5074452;28;20292;-64
2022/01/17 12:41:41;;;;;;;22.87;18.70;;;6.90;99.90;;;;;;5067550;28;20208;-64
2022/01/17 12:44:17;;;;;;;19.40;15.43;;;6.90;99.90;;;;;;5053759;28;20179;-64
2022/01/17 12:46:44;;;;;;;30.07;20.50;;;6.90;99.90;;;;;;5060425;28;20178;-65
2022/01/17 12:49:11;;;;;;;25.53;17.37;;;7.00;99.90;;;;;;5070478;28;20735;-64
2022/01/17 12:51:44;;;;;;;23.93;17.50;;;6.90;99.90;;;;;;5053935;28;20648;-64
2022/01/17 12:54:12;;;;;;;22.90;17.00;;;6.90;99.90;;;;;;5055042;28;20264;-65
2022/01/17 12:56:43;;;;;;;29.77;17.47;;;6.90;99.90;;;;;;5071663;28;20269;-64
2022/01/17 12:59:09;;;;;;;33.40;19.13;;;6.80;99.90;;;;;;5071800;28;20639;-65
2022/01/17 13:01:39;;;;;;;13.53;12.20;;;6.80;99.90;;;;;;5052628;28;20202;-64
2022/01/17 13:04:06;;;;;;;24.93;17.63;;;6.80;99.90;;;;;;5053845;28;20201;-65
2022/01/17 13:06:32;;;;;;;26.93;18.30;;;6.70;99.90;;;;;;5071214;28;20184;-64
2022/01/17 13:09:01;;;;;;;22.97;16.13;;;6.70;99.90;;;;;;5074142;28;20634;-65